sensor_id;sensor_type;location;lat;lon;timestamp;pressure;altitude;pressure_sealevel;temperature;humidity
48862;BME280;34681;49.188;-0.374;2022-12-07T00:02:24;102044.03;;;6.43;nan
48862;BME280;34681;49.188;-0.374;2022-12-07T00:04:49;102040.28;;;6.30;nan
48862;BME280;34681;49.188;-0.374;2022-12-07T00:07:15;102041.72;;;6.67;nan
48862;BME280;34681;49.188;-0.374;2022-12-07T00:09:40;102035.16;;;6.71;nan
48862;BME280;34681;49.188;-0.374;2022-12-07T00:12:06;102026.63;;;7.07;nan
48862;BME280;34681;49.188;-0.374;2022-12-07T00:14:32;102028.78;;;7.16;nan
48862;BME280;34681;49.188;-0.374;2022-12-07T00:16:58;102029.41;;;7.21;nan
48862;BME280;34681;49.188;-0.374;2022-12-07T00:19:23;102028.75;;;7.02;nan
48862;BME280;34681;49.188;-0.374;2022-12-07T00:21:48;102014.91;;;7.21;nan
48862;BME280;34681;49.188;-0.374;2022-12-07T00:24:14;102013.13;;;7.20;nan
48862;BME280;34681;49.188;-0.374;2022-12-07T00:26:40;102011.31;;;7.20;nan
48862;BME280;34681;49.188;-0.374;2022-12-07T00:29:11;102012.25;;;7.19;nan
48862;BME280;34681;49.188;-0.374;2022-12-07T00:31:38;102005.22;;;7.01;nan
48862;BME280;34681;49.188;-0.374;2022-12-07T00:34:05;102008.66;;;7.04;nan
48862;BME280;34681;49.188;-0.374;2022-12-07T00:36:31;102011.38;;;7.04;nan
48862;BME280;34681;49.188;-0.374;2022-12-07T00:38:58;102014.09;;;7.04;nan
48862;BME280;34681;49.188;-0.374;2022-12-07T00:41:25;102009.44;;;7.07;nan
48862;BME280;34681;49.188;-0.374;2022-12-07T00:43:52;102011.84;;;7.11;nan
48862;BME280;34681;49.188;-0.374;2022-12-07T00:46:18;102005.66;;;7.23;nan
48862;BME280;34681;49.188;-0.374;2022-12-07T00:48:44;101998.38;;;7.24;nan
48862;BME280;34681;49.188;-0.374;2022-12-07T00:51:11;102000.91;;;7.13;nan
48862;BME280;34681;49.188;-0.374;2022-12-07T00:53:38;102000.22;;;7.23;nan
48862;BME280;34681;49.188;-0.374;2022-12-07T00:56:08;101994.88;;;7.22;nan
48862;BME280;34681;49.188;-0.374;2022-12-07T00:58:34;101998.06;;;7.14;nan
48862;BME280;34681;49.188;-0.374;2022-12-07T01:01:01;102000.63;;;7.31;nan
48862;BME280;34681;49.188;-0.374;2022-12-07T01:03:27;102006.47;;;7.40;nan
48862;BME280;34681;49.188;-0.374;2022-12-07T01:05:54;102007.41;;;7.24;nan
48862;BME280;34681;49.188;-0.374;2022-12-07T01:08:20;102008.09;;;7.28;nan
48862;BME280;34681;49.188;-0.374;2022-12-07T01:10:46;102000.63;;;7.31;nan
48862;BME280;34681;49.188;-0.374;2022-12-07T01:13:15;102006.56;;;7.38;nan
48862;BME280;34681;49.188;-0.374;2022-12-07T01:15:44;102004.91;;;7.21;nan
48862;BME280;34681;49.188;-0.374;2022-12-07T01:18:10;101997.47;;;7.09;nan
48862;BME280;34681;49.188;-0.374;2022-12-07T01:20:36;102004.19;;;7.03;nan
48862;BME280;34681;49.188;-0.374;2022-12-07T01:23:02;101998.16;;;7.13;nan
48862;BME280;34681;49.188;-0.374;2022-12-07T01:25:27;101996.41;;;7.26;nan
48862;BME280;34681;49.188;-0.374;2022-12-07T01:27:53;101998.19;;;7.41;nan
48862;BME280;34681;49.188;-0.374;2022-12-07T01:30:18;101989.53;;;7.35;nan
48862;BME280;34681;49.188;-0.374;2022-12-07T01:32:43;101990.41;;;7.35;nan
48862;BME280;34681;49.188;-0.374;2022-12-07T01:35:09;101992.56;;;7.30;nan
48862;BME280;34681;49.188;-0.374;2022-12-07T01:37:36;101979.22;;;7.25;nan
48862;BME280;34681;49.188;-0.374;2022-12-07T01:40:03;101985.06;;;7.33;nan
48862;BME280;34681;49.188;-0.374;2022-12-07T01:42:29;101991.28;;;7.36;nan
48862;BME280;34681;49.188;-0.374;2022-12-07T01:47:58;101991.75;;;7.14;nan
48862;BME280;34681;49.188;-0.374;2022-12-07T01:50:26;101991.84;;;7.26;nan
48862;BME280;34681;49.188;-0.374;2022-12-07T01:52:53;101989.63;;;7.33;nan
48862;BME280;34681;49.188;-0.374;2022-12-07T01:55:21;101987.88;;;7.32;nan
48862;BME280;34681;49.188;-0.374;2022-12-07T01:57:49;101991.22;;;7.37;nan
48862;BME280;34681;49.188;-0.374;2022-12-07T02:00:16;101990.34;;;7.37;nan
48862;BME280;34681;49.188;-0.374;2022-12-07T02:05:16;101992.56;;;7.30;nan
48862;BME280;34681;49.188;-0.374;2022-12-07T02:07:42;102002.09;;;7.37;nan
48862;BME280;34681;49.188;-0.374;2022-12-07T02:10:18;101995.19;;;7.46;nan
48862;BME280;34681;49.188;-0.374;2022-12-07T02:12:52;101998.50;;;7.37;nan
48862;BME280;34681;49.188;-0.374;2022-12-07T02:15:20;102001.91;;;7.40;nan
48862;BME280;34681;49.188;-0.374;2022-12-07T02:18:07;101996.25;;;7.29;nan
48862;BME280;34681;49.188;-0.374;2022-12-07T02:23:38;101994.59;;;7.41;nan
48862;BME280;34681;49.188;-0.374;2022-12-07T02:32:20;102005.50;;;7.41;nan
48862;BME280;34681;49.188;-0.374;2022-12-07T02:34:53;101998.78;;;7.46;nan
48862;BME280;34681;49.188;-0.374;2022-12-07T02:40:02;102006.09;;;7.46;nan
48862;BME280;34681;49.188;-0.374;2022-12-07T02:42:36;102000.66;;;7.46;nan
48862;BME280;34681;49.188;-0.374;2022-12-07T02:45:05;101998.31;;;7.54;nan
48862;BME280;34681;49.188;-0.374;2022-12-07T02:47:33;102001.81;;;7.56;nan
48862;BME280;34681;49.188;-0.374;2022-12-07T02:50:03;101999.97;;;7.56;nan
48862;BME280;34681;49.188;-0.374;2022-12-07T02:52:29;101988.38;;;7.53;nan
48862;BME280;34681;49.188;-0.374;2022-12-07T02:54:54;101984.00;;;7.50;nan
48862;BME280;34681;49.188;-0.374;2022-12-07T02:57:45;101991.88;;;7.41;nan
48862;BME280;34681;49.188;-0.374;2022-12-07T03:00:18;101990.16;;;7.54;nan
48862;BME280;34681;49.188;-0.374;2022-12-07T03:02:51;101988.88;;;7.45;nan
48862;BME280;34681;49.188;-0.374;2022-12-07T03:10:59;101993.81;;;7.39;nan
48862;BME280;34681;49.188;-0.374;2022-12-07T03:19:08;101976.50;;;7.25;nan
48862;BME280;34681;49.188;-0.374;2022-12-07T03:21:39;101972.69;;;7.28;nan
48862;BME280;34681;49.188;-0.374;2022-12-07T03:24:13;101974.06;;;7.35;nan
48862;BME280;34681;49.188;-0.374;2022-12-07T03:26:44;101972.53;;;7.31;nan
48862;BME280;34681;49.188;-0.374;2022-12-07T03:29:30;101970.38;;;7.22;nan
48862;BME280;34681;49.188;-0.374;2022-12-07T03:32:27;101969.78;;;7.17;nan
48862;BME280;34681;49.188;-0.374;2022-12-07T03:37:34;101969.28;;;7.10;nan
48862;BME280;34681;49.188;-0.374;2022-12-07T03:40:03;101978.63;;;7.06;nan
48862;BME280;34681;49.188;-0.374;2022-12-07T03:42:32;101977.16;;;7.15;nan
48862;BME280;34681;49.188;-0.374;2022-12-07T03:44:59;101975.31;;;7.15;nan
48862;BME280;34681;49.188;-0.374;2022-12-07T03:48:02;101972.03;;;7.24;nan
48862;BME280;34681;49.188;-0.374;2022-12-07T03:50:31;101971.53;;;7.32;nan
48862;BME280;34681;49.188;-0.374;2022-12-07T03:53:07;101970.06;;;7.26;nan
48862;BME280;34681;49.188;-0.374;2022-12-07T03:55:36;101966.78;;;7.21;nan
48862;BME280;34681;49.188;-0.374;2022-12-07T03:58:07;101961.72;;;7.15;nan
48862;BME280;34681;49.188;-0.374;2022-12-07T04:00:34;101958.59;;;7.07;nan
48862;BME280;34681;49.188;-0.374;2022-12-07T04:03:00;101961.47;;;6.90;nan
48862;BME280;34681;49.188;-0.374;2022-12-07T04:05:25;101958.84;;;7.02;nan
48862;BME280;34681;49.188;-0.374;2022-12-07T04:07:51;101964.34;;;6.87;nan
48862;BME280;34681;49.188;-0.374;2022-12-07T04:10:17;101960.13;;;6.97;nan
48862;BME280;34681;49.188;-0.374;2022-12-07T04:12:43;101963.63;;;6.99;nan
48862;BME280;34681;49.188;-0.374;2022-12-07T04:15:08;101962.03;;;6.95;nan
48862;BME280;34681;49.188;-0.374;2022-12-07T04:17:34;101958.44;;;6.94;nan
48862;BME280;34681;49.188;-0.374;2022-12-07T04:20:00;101953.63;;;6.99;nan
48862;BME280;34681;49.188;-0.374;2022-12-07T04:22:26;101950.03;;;6.99;nan
48862;BME280;34681;49.188;-0.374;2022-12-07T04:24:51;101953.97;;;6.93;nan
48862;BME280;34681;49.188;-0.374;2022-12-07T04:27:16;101947.91;;;7.04;nan
48862;BME280;34681;49.188;-0.374;2022-12-07T04:29:42;101955.25;;;6.88;nan
48862;BME280;34681;49.188;-0.374;2022-12-07T04:32:07;101955.72;;;6.94;nan
48862;BME280;34681;49.188;-0.374;2022-12-07T04:34:32;101957.03;;;7.17;nan
48862;BME280;34681;49.188;-0.374;2022-12-07T04:36:58;101955.00;;;7.07;nan
48862;BME280;34681;49.188;-0.374;2022-12-07T04:39:27;101949.34;;;6.95;nan
48862;BME280;34681;49.188;-0.374;2022-12-07T04:41:53;101942.25;;;7.07;nan
48862;BME280;34681;49.188;-0.374;2022-12-07T04:44:19;101946.81;;;7.07;nan
48862;BME280;34681;49.188;-0.374;2022-12-07T04:46:45;101944.19;;;7.19;nan
48862;BME280;34681;49.188;-0.374;2022-12-07T04:49:12;101944.88;;;7.09;nan
48862;BME280;34681;49.188;-0.374;2022-12-07T04:51:37;101941.66;;;7.02;nan
48862;BME280;34681;49.188;-0.374;2022-12-07T04:54:03;101946.53;;;7.25;nan
48862;BME280;34681;49.188;-0.374;2022-12-07T04:56:28;101942.28;;;7.21;nan
48862;BME280;34681;49.188;-0.374;2022-12-07T04:58:54;101943.44;;;7.31;nan
48862;BME280;34681;49.188;-0.374;2022-12-07T05:01:20;101937.41;;;7.26;nan
48862;BME280;34681;49.188;-0.374;2022-12-07T05:03:46;101946.06;;;7.33;nan
48862;BME280;34681;49.188;-0.374;2022-12-07T05:06:12;101946.06;;;7.33;nan
48862;BME280;34681;49.188;-0.374;2022-12-07T05:08:38;101943.81;;;7.25;nan
48862;BME280;34681;49.188;-0.374;2022-12-07T05:11:05;101949.56;;;7.21;nan
48862;BME280;34681;49.188;-0.374;2022-12-07T05:13:31;101940.94;;;7.28;nan
48862;BME280;34681;49.188;-0.374;2022-12-07T05:15:57;101934.28;;;7.18;nan
48862;BME280;34681;49.188;-0.374;2022-12-07T05:18:23;101943.66;;;7.28;nan
48862;BME280;34681;49.188;-0.374;2022-12-07T05:20:48;101941.69;;;7.30;nan
48862;BME280;34681;49.188;-0.374;2022-12-07T05:23:14;101937.72;;;7.22;nan
48862;BME280;34681;49.188;-0.374;2022-12-07T05:25:40;101936.59;;;7.10;nan
48862;BME280;34681;49.188;-0.374;2022-12-07T05:28:05;101939.06;;;7.15;nan
48862;BME280;34681;49.188;-0.374;2022-12-07T05:30:32;101936.81;;;7.07;nan
48862;BME280;34681;49.188;-0.374;2022-12-07T05:32:57;101937.88;;;7.19;nan
48862;BME280;34681;49.188;-0.374;2022-12-07T05:35:23;101936.81;;;7.07;nan
48862;BME280;34681;49.188;-0.374;2022-12-07T05:37:48;101932.41;;;6.90;nan
48862;BME280;34681;49.188;-0.374;2022-12-07T05:40:14;101931.22;;;6.80;nan
48862;BME280;34681;49.188;-0.374;2022-12-07T05:42:40;101933.66;;;6.85;nan
48862;BME280;34681;49.188;-0.374;2022-12-07T05:45:06;101925.69;;;6.82;nan
48862;BME280;34681;49.188;-0.374;2022-12-07T05:47:32;101935.66;;;6.67;nan
48862;BME280;34681;49.188;-0.374;2022-12-07T05:49:57;101933.13;;;6.64;nan
48862;BME280;34681;49.188;-0.374;2022-12-07T05:52:23;101930.13;;;6.68;nan
48862;BME280;34681;49.188;-0.374;2022-12-07T05:54:49;101930.63;;;6.75;nan
48862;BME280;34681;49.188;-0.374;2022-12-07T05:57:14;101927.13;;;6.73;nan
48862;BME280;34681;49.188;-0.374;2022-12-07T05:59:39;101926.22;;;6.58;nan
48862;BME280;34681;49.188;-0.374;2022-12-07T06:02:07;101934.00;;;6.64;nan
48862;BME280;34681;49.188;-0.374;2022-12-07T06:04:36;101933.59;;;6.56;nan
48862;BME280;34681;49.188;-0.374;2022-12-07T06:07:02;101929.19;;;6.54;nan
48862;BME280;34681;49.188;-0.374;2022-12-07T06:09:28;101930.16;;;6.53;nan
48862;BME280;34681;49.188;-0.374;2022-12-07T06:11:54;101927.38;;;6.54;nan
48862;BME280;34681;49.188;-0.374;2022-12-07T06:14:38;101926.81;;;6.63;nan
48862;BME280;34681;49.188;-0.374;2022-12-07T06:17:04;101924.09;;;6.63;nan
48862;BME280;34681;49.188;-0.374;2022-12-07T06:19:30;101922.41;;;6.61;nan
48862;BME280;34681;49.188;-0.374;2022-12-07T06:21:56;101917.38;;;6.55;nan
48862;BME280;34681;49.188;-0.374;2022-12-07T06:24:21;101916.66;;;6.51;nan
48862;BME280;34681;49.188;-0.374;2022-12-07T06:26:47;101921.97;;;6.38;nan
48862;BME280;34681;49.188;-0.374;2022-12-07T06:29:13;101919.47;;;6.50;nan
48862;BME280;34681;49.188;-0.374;2022-12-07T06:31:38;101914.13;;;6.48;nan
48862;BME280;34681;49.188;-0.374;2022-12-07T06:34:09;101919.94;;;6.42;nan
48862;BME280;34681;49.188;-0.374;2022-12-07T06:36:35;101925.41;;;6.26;nan
48862;BME280;34681;49.188;-0.374;2022-12-07T06:39:02;101924.19;;;6.32;nan
48862;BME280;34681;49.188;-0.374;2022-12-07T06:41:27;101928.09;;;6.42;nan
48862;BME280;34681;49.188;-0.374;2022-12-07T06:43:53;101935.78;;;6.50;nan
48862;BME280;34681;49.188;-0.374;2022-12-07T06:46:18;101935.34;;;6.57;nan
48862;BME280;34681;49.188;-0.374;2022-12-07T06:48:43;101927.97;;;6.59;nan
48862;BME280;34681;49.188;-0.374;2022-12-07T06:51:09;101930.50;;;6.62;nan
48862;BME280;34681;49.188;-0.374;2022-12-07T06:53:35;101929.91;;;6.57;nan
48862;BME280;34681;49.188;-0.374;2022-12-07T06:56:02;101929.03;;;6.57;nan
48862;BME280;34681;49.188;-0.374;2022-12-07T06:58:27;101931.19;;;6.66;nan
48862;BME280;34681;49.188;-0.374;2022-12-07T07:00:53;101930.41;;;6.34;nan
48862;BME280;34681;49.188;-0.374;2022-12-07T07:03:19;101935.47;;;6.40;nan
48862;BME280;34681;49.188;-0.374;2022-12-07T07:05:44;101929.47;;;6.03;nan
48862;BME280;34681;49.188;-0.374;2022-12-07T07:08:10;101933.72;;;5.60;nan
48862;BME280;34681;49.188;-0.374;2022-12-07T07:10:36;101934.97;;;5.04;nan
48862;BME280;34681;49.188;-0.374;2022-12-07T07:13:02;101936.41;;;5.44;nan
48862;BME280;34681;49.188;-0.374;2022-12-07T07:15:28;101934.78;;;5.73;nan
48862;BME280;34681;49.188;-0.374;2022-12-07T07:17:54;101938.09;;;4.96;nan
48862;BME280;34681;49.188;-0.374;2022-12-07T07:20:19;101947.69;;;4.34;nan
48862;BME280;34681;49.188;-0.374;2022-12-07T07:22:45;101934.31;;;4.66;nan
48862;BME280;34681;49.188;-0.374;2022-12-07T07:25:10;101934.44;;;5.63;nan
48862;BME280;34681;49.188;-0.374;2022-12-07T07:27:36;101941.38;;;6.01;nan
48862;BME280;34681;49.188;-0.374;2022-12-07T07:30:02;101939.56;;;5.52;nan
48862;BME280;34681;49.188;-0.374;2022-12-07T07:32:27;101934.78;;;5.73;nan
48862;BME280;34681;49.188;-0.374;2022-12-07T07:34:53;101939.78;;;6.28;nan
48862;BME280;34681;49.188;-0.374;2022-12-07T07:37:18;101940.59;;;6.60;nan
48862;BME280;34681;49.188;-0.374;2022-12-07T07:39:43;101943.81;;;6.67;nan
48862;BME280;34681;49.188;-0.374;2022-12-07T07:42:09;101951.97;;;6.67;nan
48862;BME280;34681;49.188;-0.374;2022-12-07T07:44:34;101949.97;;;6.85;nan
48862;BME280;34681;49.188;-0.374;2022-12-07T07:47:00;101948.69;;;6.76;nan
48862;BME280;34681;49.188;-0.374;2022-12-07T07:49:25;101948.28;;;6.68;nan
48862;BME280;34681;49.188;-0.374;2022-12-07T07:51:51;101949.06;;;6.70;nan
48862;BME280;34681;49.188;-0.374;2022-12-07T07:54:16;101944.56;;;6.99;nan
48862;BME280;34681;49.188;-0.374;2022-12-07T07:56:42;101948.56;;;7.08;nan
48862;BME280;34681;49.188;-0.374;2022-12-07T07:59:07;101949.28;;;7.25;nan
48862;BME280;34681;49.188;-0.374;2022-12-07T08:01:33;101949.56;;;7.35;nan
48862;BME280;34681;49.188;-0.374;2022-12-07T08:03:59;101953.97;;;7.38;nan
48862;BME280;34681;49.188;-0.374;2022-12-07T08:06:24;101959.56;;;7.35;nan
48862;BME280;34681;49.188;-0.374;2022-12-07T08:08:50;101958.13;;;7.43;nan
48862;BME280;34681;49.188;-0.374;2022-12-07T08:11:15;101957.56;;;7.38;nan
48862;BME280;34681;49.188;-0.374;2022-12-07T08:13:41;101953.09;;;7.37;nan
48862;BME280;34681;49.188;-0.374;2022-12-07T08:16:08;101957.25;;;7.28;nan
48862;BME280;34681;49.188;-0.374;2022-12-07T08:18:36;101969.63;;;6.30;nan
48862;BME280;34681;49.188;-0.374;2022-12-07T08:21:02;101972.81;;;5.73;nan
48862;BME280;34681;49.188;-0.374;2022-12-07T08:23:29;101976.97;;;5.47;nan
48862;BME280;34681;49.188;-0.374;2022-12-07T08:25:55;101975.75;;;5.02;nan
48862;BME280;34681;49.188;-0.374;2022-12-07T08:28:20;101983.34;;;5.79;nan
48862;BME280;34681;49.188;-0.374;2022-12-07T08:30:46;101986.59;;;6.33;nan
48862;BME280;34681;49.188;-0.374;2022-12-07T08:33:11;101988.81;;;6.27;nan
48862;BME280;34681;49.188;-0.374;2022-12-07T08:35:37;101987.97;;;5.77;nan
48862;BME280;34681;49.188;-0.374;2022-12-07T08:38:02;101987.13;;;6.40;nan
48862;BME280;34681;49.188;-0.374;2022-12-07T08:40:28;101985.25;;;5.77;nan
48862;BME280;34681;49.188;-0.374;2022-12-07T08:42:54;101980.56;;;5.48;nan
48862;BME280;34681;49.188;-0.374;2022-12-07T08:45:21;101976.03;;;4.81;nan
48862;BME280;34681;49.188;-0.374;2022-12-07T08:47:51;101983.03;;;5.02;nan
48862;BME280;34681;49.188;-0.374;2022-12-07T08:50:18;101979.44;;;5.68;nan
48862;BME280;34681;49.188;-0.374;2022-12-07T08:52:43;101977.91;;;5.79;nan
48862;BME280;34681;49.188;-0.374;2022-12-07T08:55:10;101981.13;;;5.86;nan
48862;BME280;34681;49.188;-0.374;2022-12-07T08:57:36;101981.28;;;6.00;nan
48862;BME280;34681;49.188;-0.374;2022-12-07T09:00:04;101988.84;;;6.57;nan
48862;BME280;34681;49.188;-0.374;2022-12-07T09:02:31;101989.63;;;6.59;nan
48862;BME280;34681;49.188;-0.374;2022-12-07T09:04:56;101985.72;;;6.48;nan
48862;BME280;34681;49.188;-0.374;2022-12-07T09:07:22;101988.19;;;6.37;nan
48862;BME280;34681;49.188;-0.374;2022-12-07T09:09:47;101972.75;;;6.98;nan
48862;BME280;34681;49.188;-0.374;2022-12-07T09:12:16;101978.75;;;7.33;nan
48862;BME280;34681;49.188;-0.374;2022-12-07T09:14:41;101981.38;;;7.35;nan
48862;BME280;34681;49.188;-0.374;2022-12-07T09:17:08;101969.31;;;7.53;nan
48862;BME280;34681;49.188;-0.374;2022-12-07T09:19:34;101978.94;;;7.58;nan
48862;BME280;34681;49.188;-0.374;2022-12-07T09:21:59;101983.59;;;7.28;nan
48862;BME280;34681;49.188;-0.374;2022-12-07T09:24:25;101982.66;;;6.39;nan
48862;BME280;34681;49.188;-0.374;2022-12-07T09:26:50;101988.75;;;5.63;nan
48862;BME280;34681;49.188;-0.374;2022-12-07T09:29:15;101991.97;;;5.21;nan
48862;BME280;34681;49.188;-0.374;2022-12-07T09:31:41;101992.03;;;5.53;nan
48862;BME280;34681;49.188;-0.374;2022-12-07T09:34:06;101991.50;;;5.95;nan
48862;BME280;34681;49.188;-0.374;2022-12-07T09:36:32;101988.28;;;5.55;nan
48862;BME280;34681;49.188;-0.374;2022-12-07T09:38:58;101977.97;;;5.29;nan
48862;BME280;34681;49.188;-0.374;2022-12-07T09:41:25;101984.31;;;4.95;nan
48862;BME280;34681;49.188;-0.374;2022-12-07T09:43:53;101973.84;;;4.87;nan
48862;BME280;34681;49.188;-0.374;2022-12-07T09:46:23;101975.88;;;4.84;nan
48862;BME280;34681;49.188;-0.374;2022-12-07T09:48:49;101975.22;;;4.96;nan
48862;BME280;34681;49.188;-0.374;2022-12-07T09:51:23;101978.38;;;5.54;nan
48862;BME280;34681;49.188;-0.374;2022-12-07T09:53:50;101975.69;;;5.37;nan
48862;BME280;34681;49.188;-0.374;2022-12-07T09:56:17;101969.06;;;5.10;nan
48862;BME280;34681;49.188;-0.374;2022-12-07T09:58:44;101965.72;;;5.22;nan
48862;BME280;34681;49.188;-0.374;2022-12-07T10:01:13;101964.41;;;6.41;nan
48862;BME280;34681;49.188;-0.374;2022-12-07T10:03:41;101962.03;;;6.81;nan
48862;BME280;34681;49.188;-0.374;2022-12-07T10:06:11;101969.63;;;6.90;nan
48862;BME280;34681;49.188;-0.374;2022-12-07T10:08:37;101966.00;;;7.33;nan
48862;BME280;34681;49.188;-0.374;2022-12-07T10:11:03;101960.56;;;7.62;nan
48862;BME280;34681;49.188;-0.374;2022-12-07T10:16:04;101958.81;;;8.16;nan
48862;BME280;34681;49.188;-0.374;2022-12-07T10:21:10;101968.31;;;7.97;nan
48862;BME280;34681;49.188;-0.374;2022-12-07T10:23:39;101959.91;;;8.41;nan
48862;BME280;34681;49.188;-0.374;2022-12-07T10:26:29;101955.88;;;8.61;nan
48862;BME280;34681;49.188;-0.374;2022-12-07T10:28:56;101949.16;;;8.52;nan
48862;BME280;34681;49.188;-0.374;2022-12-07T10:31:23;101947.88;;;8.58;nan
48862;BME280;34681;49.188;-0.374;2022-12-07T10:36:25;101938.91;;;8.95;nan
48862;BME280;34681;49.188;-0.374;2022-12-07T10:39:20;101939.09;;;8.80;nan
48862;BME280;34681;49.188;-0.374;2022-12-07T10:41:59;101931.34;;;8.99;nan
48862;BME280;34681;49.188;-0.374;2022-12-07T10:44:31;101938.78;;;9.48;nan
48862;BME280;34681;49.188;-0.374;2022-12-07T10:47:35;101931.53;;;9.60;nan
48862;BME280;34681;49.188;-0.374;2022-12-07T11:00:50;101916.59;;;9.01;nan
48862;BME280;34681;49.188;-0.374;2022-12-07T11:03:33;101917.50;;;9.15;nan
48862;BME280;34681;49.188;-0.374;2022-12-07T11:11:36;101913.88;;;9.40;nan
48862;BME280;34681;49.188;-0.374;2022-12-07T11:21:55;101898.47;;;8.75;nan
48862;BME280;34681;49.188;-0.374;2022-12-07T11:27:40;101886.59;;;9.76;nan
48862;BME280;34681;49.188;-0.374;2022-12-07T11:30:18;101886.38;;;9.79;nan
48862;BME280;34681;49.188;-0.374;2022-12-07T11:38:18;101874.50;;;9.55;nan
48862;BME280;34681;49.188;-0.374;2022-12-07T11:40:53;101863.91;;;9.50;nan
48862;BME280;34681;49.188;-0.374;2022-12-07T11:43:27;101863.72;;;9.53;nan
48862;BME280;34681;49.188;-0.374;2022-12-07T11:46:12;101862.41;;;9.34;nan
48862;BME280;34681;49.188;-0.374;2022-12-07T11:49:10;101862.88;;;9.77;nan
48862;BME280;34681;49.188;-0.374;2022-12-07T11:51:40;101865.97;;;9.96;nan
48862;BME280;34681;49.188;-0.374;2022-12-07T11:54:20;101852.91;;;10.36;nan
48862;BME280;34681;49.188;-0.374;2022-12-07T11:56:50;101852.53;;;10.41;nan
48862;BME280;34681;49.188;-0.374;2022-12-07T11:59:29;101847.38;;;10.60;nan
48862;BME280;34681;49.188;-0.374;2022-12-07T12:02:14;101836.59;;;10.81;nan
48862;BME280;34681;49.188;-0.374;2022-12-07T12:05:02;101833.50;;;10.86;nan
48862;BME280;34681;49.188;-0.374;2022-12-07T12:07:31;101831.81;;;10.61;nan
48862;BME280;34681;49.188;-0.374;2022-12-07T12:10:02;101825.75;;;10.68;nan
48862;BME280;34681;49.188;-0.374;2022-12-07T12:15:52;101817.81;;;10.41;nan
48862;BME280;34681;49.188;-0.374;2022-12-07T12:21:01;101810.47;;;10.42;nan
48862;BME280;34681;49.188;-0.374;2022-12-07T12:23:35;101807.06;;;10.51;nan
48862;BME280;34681;49.188;-0.374;2022-12-07T12:26:04;101813.75;;;10.47;nan
48862;BME280;34681;49.188;-0.374;2022-12-07T12:28:38;101803.41;;;10.39;nan
48862;BME280;34681;49.188;-0.374;2022-12-07T12:33:33;101803.00;;;10.33;nan
48862;BME280;34681;49.188;-0.374;2022-12-07T12:47:00;101791.00;;;10.58;nan
48862;BME280;34681;49.188;-0.374;2022-12-07T12:49:37;101786.16;;;10.61;nan
48862;BME280;34681;49.188;-0.374;2022-12-07T12:57:34;101778.44;;;10.66;nan
48862;BME280;34681;49.188;-0.374;2022-12-07T13:00:14;101770.44;;;10.41;nan
48862;BME280;34681;49.188;-0.374;2022-12-07T13:02:50;101775.19;;;10.50;nan
48862;BME280;34681;49.188;-0.374;2022-12-07T13:05:20;101770.97;;;10.46;nan
48862;BME280;34681;49.188;-0.374;2022-12-07T13:10:43;101764.63;;;10.46;nan
48862;BME280;34681;49.188;-0.374;2022-12-07T13:20:57;101760.00;;;10.46;nan
48862;BME280;34681;49.188;-0.374;2022-12-07T13:23:25;101764.50;;;10.12;nan
48862;BME280;34681;49.188;-0.374;2022-12-07T13:28:36;101767.91;;;8.43;nan
48862;BME280;34681;49.188;-0.374;2022-12-07T13:31:16;101764.94;;;8.85;nan
48862;BME280;34681;49.188;-0.374;2022-12-07T13:33:44;101768.34;;;8.76;nan
48862;BME280;34681;49.188;-0.374;2022-12-07T13:36:33;101763.88;;;8.49;nan
48862;BME280;34681;49.188;-0.374;2022-12-07T13:39:22;101758.38;;;8.24;nan
48862;BME280;34681;49.188;-0.374;2022-12-07T13:42:11;101755.69;;;8.49;nan
48862;BME280;34681;49.188;-0.374;2022-12-07T13:44:40;101751.28;;;8.34;nan
48862;BME280;34681;49.188;-0.374;2022-12-07T13:47:15;101753.38;;;8.30;nan
48862;BME280;34681;49.188;-0.374;2022-12-07T13:49:50;101750.56;;;7.92;nan
48862;BME280;34681;49.188;-0.374;2022-12-07T13:52:19;101754.44;;;8.15;nan
48862;BME280;34681;49.188;-0.374;2022-12-07T13:55:13;101750.59;;;8.44;nan
48862;BME280;34681;49.188;-0.374;2022-12-07T13:57:35;101736.22;;;8.15;nan
48862;BME280;34681;49.188;-0.374;2022-12-07T14:00:13;101734.75;;;8.37;nan
48862;BME280;34681;49.188;-0.374;2022-12-07T14:05:31;101728.38;;;8.24;nan
48862;BME280;34681;49.188;-0.374;2022-12-07T14:10:27;101717.06;;;8.55;nan
48862;BME280;34681;49.188;-0.374;2022-12-07T14:12:53;101717.63;;;8.48;nan
48862;BME280;34681;49.188;-0.374;2022-12-07T14:15:32;101714.22;;;8.31;nan
48862;BME280;34681;49.188;-0.374;2022-12-07T14:18:00;101711.19;;;8.36;nan
48862;BME280;34681;49.188;-0.374;2022-12-07T14:20:29;101713.03;;;8.61;nan
48862;BME280;34681;49.188;-0.374;2022-12-07T14:22:56;101709.22;;;8.63;nan
48862;BME280;34681;49.188;-0.374;2022-12-07T14:25:26;101690.31;;;9.10;nan
48862;BME280;34681;49.188;-0.374;2022-12-07T14:30:33;101703.13;;;9.92;nan
48862;BME280;34681;49.188;-0.374;2022-12-07T14:33:03;101683.19;;;10.03;nan
48862;BME280;34681;49.188;-0.374;2022-12-07T14:35:30;101688.97;;;9.87;nan
48862;BME280;34681;49.188;-0.374;2022-12-07T14:37:55;101689.53;;;10.14;nan
48862;BME280;34681;49.188;-0.374;2022-12-07T14:40:26;101680.84;;;10.09;nan
48862;BME280;34681;49.188;-0.374;2022-12-07T14:43:16;101687.75;;;10.26;nan
48862;BME280;34681;49.188;-0.374;2022-12-07T14:45:42;101689.81;;;10.23;nan
48862;BME280;34681;49.188;-0.374;2022-12-07T14:48:11;101676.78;;;10.26;nan
48862;BME280;34681;49.188;-0.374;2022-12-07T14:50:39;101675.50;;;10.19;nan
48862;BME280;34681;49.188;-0.374;2022-12-07T14:53:35;101681.16;;;10.29;nan
48862;BME280;34681;49.188;-0.374;2022-12-07T14:56:02;101689.47;;;10.27;nan
48862;BME280;34681;49.188;-0.374;2022-12-07T14:58:30;101682.13;;;10.28;nan
48862;BME280;34681;49.188;-0.374;2022-12-07T15:00:55;101675.28;;;10.22;nan
48862;BME280;34681;49.188;-0.374;2022-12-07T15:03:21;101681.94;;;10.07;nan
48862;BME280;34681;49.188;-0.374;2022-12-07T15:05:46;101676.38;;;10.20;nan
48862;BME280;34681;49.188;-0.374;2022-12-07T15:08:12;101671.66;;;10.22;nan
48862;BME280;34681;49.188;-0.374;2022-12-07T15:10:37;101671.00;;;10.07;nan
48862;BME280;34681;49.188;-0.374;2022-12-07T15:13:04;101667.25;;;9.97;nan
48862;BME280;34681;49.188;-0.374;2022-12-07T15:15:50;101660.66;;;9.99;nan
48862;BME280;34681;49.188;-0.374;2022-12-07T15:18:16;101655.50;;;9.83;nan